Terminal Aerodrome Forecast
Issued by NWS

Home | Current Version | Previous Version | Text Only | Print | Product List | Glossary On
Versions: 1 2 3 4 5 6 7 8 9 10 11 12 13 14 15 16 17 18 19 20
326
FTUS43 KGRB 261314 AAB
TAFMTW
TAF AMD
KMTW 261314Z 2613/2712 00000KT 6SM BR SCT004 BKN090
      TEMPO 2613/2615 3SM BR OVC004
     FM261500 00000KT P6SM BKN090 BKN120
     FM261700 14006KT P6SM BKN090
     FM262200 17006KT P6SM VCSH BKN050 BKN080
     FM270600 VRB02KT P6SM SCT080=

USA.gov is the U.S. government's official web portal to all federal, state and local government web resources and services.